sensor_id;sensor_type;location;lat;lon;timestamp;P1;durP1;ratioP1;P2;durP2;ratioP2
13847;SDS011;6994;49.752;6.094;2022-10-19T00:01:38;37.67;;;18.77;;
13847;SDS011;6994;49.752;6.094;2022-10-19T00:04:05;36.88;;;20.30;;
13847;SDS011;6994;49.752;6.094;2022-10-19T00:06:33;45.50;;;26.55;;
13847;SDS011;6994;49.752;6.094;2022-10-19T00:11:27;40.95;;;22.13;;
13847;SDS011;6994;49.752;6.094;2022-10-19T00:13:54;37.88;;;20.98;;
13847;SDS011;6994;49.752;6.094;2022-10-19T00:16:22;22.98;;;14.20;;
13847;SDS011;6994;49.752;6.094;2022-10-19T00:18:49;26.87;;;13.60;;
13847;SDS011;6994;49.752;6.094;2022-10-19T00:21:16;29.80;;;16.37;;
13847;SDS011;6994;49.752;6.094;2022-10-19T00:23:43;40.40;;;19.60;;
13847;SDS011;6994;49.752;6.094;2022-10-19T00:26:11;35.58;;;20.62;;
13847;SDS011;6994;49.752;6.094;2022-10-19T00:31:16;42.67;;;22.30;;
13847;SDS011;6994;49.752;6.094;2022-10-19T00:33:44;36.08;;;22.15;;
13847;SDS011;6994;49.752;6.094;2022-10-19T00:36:21;41.70;;;21.90;;
13847;SDS011;6994;49.752;6.094;2022-10-19T00:38:50;46.08;;;21.58;;
13847;SDS011;6994;49.752;6.094;2022-10-19T00:41:17;43.15;;;23.23;;
13847;SDS011;6994;49.752;6.094;2022-10-19T00:43:55;45.45;;;23.30;;
13847;SDS011;6994;49.752;6.094;2022-10-19T00:46:20;50.80;;;24.05;;
13847;SDS011;6994;49.752;6.094;2022-10-19T00:48:49;42.62;;;22.65;;
13847;SDS011;6994;49.752;6.094;2022-10-19T00:51:16;41.50;;;21.10;;
13847;SDS011;6994;49.752;6.094;2022-10-19T00:53:44;43.38;;;23.42;;
13847;SDS011;6994;49.752;6.094;2022-10-19T00:56:12;42.47;;;22.50;;
13847;SDS011;6994;49.752;6.094;2022-10-19T00:58:39;44.75;;;23.30;;
13847;SDS011;6994;49.752;6.094;2022-10-19T01:01:06;48.15;;;22.42;;
13847;SDS011;6994;49.752;6.094;2022-10-19T01:03:34;43.58;;;23.95;;
13847;SDS011;6994;49.752;6.094;2022-10-19T01:06:02;44.92;;;22.50;;
13847;SDS011;6994;49.752;6.094;2022-10-19T01:08:29;38.97;;;22.02;;
13847;SDS011;6994;49.752;6.094;2022-10-19T01:16:18;41.40;;;21.80;;
13847;SDS011;6994;49.752;6.094;2022-10-19T01:21:59;39.30;;;21.98;;
13847;SDS011;6994;49.752;6.094;2022-10-19T01:24:26;42.30;;;21.42;;
13847;SDS011;6994;49.752;6.094;2022-10-19T01:27:05;37.53;;;21.08;;
13847;SDS011;6994;49.752;6.094;2022-10-19T01:32:24;45.95;;;21.87;;
13847;SDS011;6994;49.752;6.094;2022-10-19T01:35:02;42.47;;;24.55;;
13847;SDS011;6994;49.752;6.094;2022-10-19T01:37:33;41.95;;;21.62;;
13847;SDS011;6994;49.752;6.094;2022-10-19T01:40:03;45.67;;;22.35;;
13847;SDS011;6994;49.752;6.094;2022-10-19T01:42:30;46.92;;;21.73;;
13847;SDS011;6994;49.752;6.094;2022-10-19T01:45:03;45.33;;;21.80;;
13847;SDS011;6994;49.752;6.094;2022-10-19T01:47:38;31.37;;;17.15;;
13847;SDS011;6994;49.752;6.094;2022-10-19T01:50:06;34.25;;;22.02;;
13847;SDS011;6994;49.752;6.094;2022-10-19T01:52:41;37.28;;;19.77;;
13847;SDS011;6994;49.752;6.094;2022-10-19T01:55:10;39.42;;;20.12;;
13847;SDS011;6994;49.752;6.094;2022-10-19T01:57:37;41.05;;;21.58;;
13847;SDS011;6994;49.752;6.094;2022-10-19T02:00:03;51.28;;;27.27;;
13847;SDS011;6994;49.752;6.094;2022-10-19T02:02:30;43.55;;;20.98;;
13847;SDS011;6994;49.752;6.094;2022-10-19T02:04:58;36.92;;;20.05;;
13847;SDS011;6994;49.752;6.094;2022-10-19T02:07:25;38.17;;;18.50;;
13847;SDS011;6994;49.752;6.094;2022-10-19T02:09:53;39.25;;;18.90;;
13847;SDS011;6994;49.752;6.094;2022-10-19T02:12:20;33.90;;;18.33;;
13847;SDS011;6994;49.752;6.094;2022-10-19T02:14:49;36.45;;;18.92;;
13847;SDS011;6994;49.752;6.094;2022-10-19T02:17:16;38.70;;;18.98;;
13847;SDS011;6994;49.752;6.094;2022-10-19T02:19:42;34.85;;;19.02;;
13847;SDS011;6994;49.752;6.094;2022-10-19T02:22:11;37.05;;;19.35;;
13847;SDS011;6994;49.752;6.094;2022-10-19T02:24:38;43.42;;;18.95;;
13847;SDS011;6994;49.752;6.094;2022-10-19T02:27:06;51.35;;;25.83;;
13847;SDS011;6994;49.752;6.094;2022-10-19T02:29:33;38.75;;;18.65;;
13847;SDS011;6994;49.752;6.094;2022-10-19T02:32:00;38.65;;;19.10;;
13847;SDS011;6994;49.752;6.094;2022-10-19T02:34:28;35.35;;;17.80;;
13847;SDS011;6994;49.752;6.094;2022-10-19T02:36:56;45.63;;;20.45;;
13847;SDS011;6994;49.752;6.094;2022-10-19T02:39:24;37.90;;;18.27;;
13847;SDS011;6994;49.752;6.094;2022-10-19T02:42:03;43.10;;;19.48;;
13847;SDS011;6994;49.752;6.094;2022-10-19T02:44:33;39.80;;;18.83;;
13847;SDS011;6994;49.752;6.094;2022-10-19T02:47:00;37.90;;;20.40;;
13847;SDS011;6994;49.752;6.094;2022-10-19T02:49:27;36.35;;;18.10;;
13847;SDS011;6994;49.752;6.094;2022-10-19T02:54:27;33.70;;;17.50;;
13847;SDS011;6994;49.752;6.094;2022-10-19T02:56:55;33.67;;;17.60;;
13847;SDS011;6994;49.752;6.094;2022-10-19T02:59:23;35.50;;;16.98;;
13847;SDS011;6994;49.752;6.094;2022-10-19T03:01:49;36.60;;;17.30;;
13847;SDS011;6994;49.752;6.094;2022-10-19T03:04:17;43.13;;;24.70;;
13847;SDS011;6994;49.752;6.094;2022-10-19T03:06:45;38.38;;;18.00;;
13847;SDS011;6994;49.752;6.094;2022-10-19T03:09:13;31.25;;;16.35;;
13847;SDS011;6994;49.752;6.094;2022-10-19T03:11:41;38.60;;;18.40;;
13847;SDS011;6994;49.752;6.094;2022-10-19T03:14:08;29.00;;;16.10;;
13847;SDS011;6994;49.752;6.094;2022-10-19T03:16:35;35.03;;;17.20;;
13847;SDS011;6994;49.752;6.094;2022-10-19T03:19:02;38.20;;;20.77;;
13847;SDS011;6994;49.752;6.094;2022-10-19T03:21:32;31.77;;;16.00;;
13847;SDS011;6994;49.752;6.094;2022-10-19T03:23:58;30.42;;;16.65;;
13847;SDS011;6994;49.752;6.094;2022-10-19T03:26:25;46.80;;;22.65;;
13847;SDS011;6994;49.752;6.094;2022-10-19T03:28:52;40.28;;;17.08;;
13847;SDS011;6994;49.752;6.094;2022-10-19T03:31:19;35.00;;;16.42;;
13847;SDS011;6994;49.752;6.094;2022-10-19T03:33:46;35.50;;;16.90;;
13847;SDS011;6994;49.752;6.094;2022-10-19T03:36:24;32.65;;;16.52;;
13847;SDS011;6994;49.752;6.094;2022-10-19T03:38:51;39.50;;;18.52;;
13847;SDS011;6994;49.752;6.094;2022-10-19T03:41:18;35.60;;;18.40;;
13847;SDS011;6994;49.752;6.094;2022-10-19T03:43:45;39.30;;;19.58;;
13847;SDS011;6994;49.752;6.094;2022-10-19T03:46:13;35.28;;;16.30;;
13847;SDS011;6994;49.752;6.094;2022-10-19T03:48:41;33.08;;;17.65;;
13847;SDS011;6994;49.752;6.094;2022-10-19T03:51:15;34.88;;;15.80;;
13847;SDS011;6994;49.752;6.094;2022-10-19T03:53:39;41.92;;;18.83;;
13847;SDS011;6994;49.752;6.094;2022-10-19T03:56:06;35.08;;;17.42;;
13847;SDS011;6994;49.752;6.094;2022-10-19T03:58:33;41.97;;;22.85;;
13847;SDS011;6994;49.752;6.094;2022-10-19T04:01:00;42.25;;;20.27;;
13847;SDS011;6994;49.752;6.094;2022-10-19T04:03:27;43.45;;;19.62;;
13847;SDS011;6994;49.752;6.094;2022-10-19T04:06:00;41.78;;;19.80;;
13847;SDS011;6994;49.752;6.094;2022-10-19T04:08:22;38.58;;;18.62;;
13847;SDS011;6994;49.752;6.094;2022-10-19T04:10:49;65.62;;;25.23;;
13847;SDS011;6994;49.752;6.094;2022-10-19T04:13:16;72.62;;;28.15;;
13847;SDS011;6994;49.752;6.094;2022-10-19T04:15:44;59.17;;;26.05;;
13847;SDS011;6994;49.752;6.094;2022-10-19T04:18:12;66.78;;;26.23;;
13847;SDS011;6994;49.752;6.094;2022-10-19T04:20:40;72.53;;;26.83;;
13847;SDS011;6994;49.752;6.094;2022-10-19T04:23:08;75.20;;;27.55;;
13847;SDS011;6994;49.752;6.094;2022-10-19T04:25:35;87.97;;;30.12;;
13847;SDS011;6994;49.752;6.094;2022-10-19T04:28:02;97.95;;;39.50;;
13847;SDS011;6994;49.752;6.094;2022-10-19T04:30:30;94.18;;;33.40;;
13847;SDS011;6994;49.752;6.094;2022-10-19T04:32:58;83.50;;;30.55;;
13847;SDS011;6994;49.752;6.094;2022-10-19T04:35:26;85.15;;;30.42;;
13847;SDS011;6994;49.752;6.094;2022-10-19T04:37:53;81.68;;;30.60;;
13847;SDS011;6994;49.752;6.094;2022-10-19T04:40:20;72.28;;;27.30;;
13847;SDS011;6994;49.752;6.094;2022-10-19T04:42:47;87.10;;;35.22;;
13847;SDS011;6994;49.752;6.094;2022-10-19T04:45:15;77.45;;;28.42;;
13847;SDS011;6994;49.752;6.094;2022-10-19T04:47:43;70.03;;;26.45;;
13847;SDS011;6994;49.752;6.094;2022-10-19T04:50:11;72.95;;;26.95;;
13847;SDS011;6994;49.752;6.094;2022-10-19T04:52:38;57.55;;;24.33;;
13847;SDS011;6994;49.752;6.094;2022-10-19T04:55:05;59.17;;;25.27;;
13847;SDS011;6994;49.752;6.094;2022-10-19T04:57:32;66.18;;;25.95;;
13847;SDS011;6994;49.752;6.094;2022-10-19T05:00:00;65.78;;;26.65;;
13847;SDS011;6994;49.752;6.094;2022-10-19T05:02:27;61.92;;;23.67;;
13847;SDS011;6994;49.752;6.094;2022-10-19T05:04:54;72.22;;;32.80;;
13847;SDS011;6994;49.752;6.094;2022-10-19T05:07:22;69.12;;;26.48;;
13847;SDS011;6994;49.752;6.094;2022-10-19T05:09:50;72.12;;;26.48;;
13847;SDS011;6994;49.752;6.094;2022-10-19T05:12:17;62.67;;;24.25;;
13847;SDS011;6994;49.752;6.094;2022-10-19T05:14:44;58.13;;;23.92;;
13847;SDS011;6994;49.752;6.094;2022-10-19T05:17:12;75.55;;;33.05;;
13847;SDS011;6994;49.752;6.094;2022-10-19T05:19:39;66.50;;;28.33;;
13847;SDS011;6994;49.752;6.094;2022-10-19T05:22:07;58.22;;;23.80;;
13847;SDS011;6994;49.752;6.094;2022-10-19T05:24:34;54.53;;;24.25;;
13847;SDS011;6994;49.752;6.094;2022-10-19T05:27:01;62.40;;;25.42;;
13847;SDS011;6994;49.752;6.094;2022-10-19T05:29:29;68.87;;;24.92;;
13847;SDS011;6994;49.752;6.094;2022-10-19T05:31:57;66.60;;;25.67;;
13847;SDS011;6994;49.752;6.094;2022-10-19T05:34:24;72.97;;;32.78;;
13847;SDS011;6994;49.752;6.094;2022-10-19T05:36:52;61.03;;;25.50;;
13847;SDS011;6994;49.752;6.094;2022-10-19T05:39:20;60.42;;;24.15;;
13847;SDS011;6994;49.752;6.094;2022-10-19T05:41:47;56.60;;;24.95;;
13847;SDS011;6994;49.752;6.094;2022-10-19T05:44:16;54.53;;;23.20;;
13847;SDS011;6994;49.752;6.094;2022-10-19T05:46:42;64.62;;;31.02;;
13847;SDS011;6994;49.752;6.094;2022-10-19T05:49:10;57.62;;;24.58;;
13847;SDS011;6994;49.752;6.094;2022-10-19T05:51:38;55.12;;;23.50;;
13847;SDS011;6994;49.752;6.094;2022-10-19T05:54:05;51.55;;;23.02;;
13847;SDS011;6994;49.752;6.094;2022-10-19T05:56:32;50.88;;;22.35;;
13847;SDS011;6994;49.752;6.094;2022-10-19T05:59:00;50.38;;;23.20;;
13847;SDS011;6994;49.752;6.094;2022-10-19T06:01:28;59.35;;;22.08;;
13847;SDS011;6994;49.752;6.094;2022-10-19T06:03:56;50.08;;;22.98;;
13847;SDS011;6994;49.752;6.094;2022-10-19T06:06:24;52.75;;;21.52;;
13847;SDS011;6994;49.752;6.094;2022-10-19T06:08:51;48.42;;;21.48;;
13847;SDS011;6994;49.752;6.094;2022-10-19T06:11:19;56.03;;;22.67;;
13847;SDS011;6994;49.752;6.094;2022-10-19T06:13:48;52.33;;;22.52;;
13847;SDS011;6994;49.752;6.094;2022-10-19T06:16:15;43.35;;;20.90;;
13847;SDS011;6994;49.752;6.094;2022-10-19T06:18:42;54.88;;;27.20;;
13847;SDS011;6994;49.752;6.094;2022-10-19T06:21:11;49.75;;;23.23;;
13847;SDS011;6994;49.752;6.094;2022-10-19T06:23:38;53.17;;;22.10;;
13847;SDS011;6994;49.752;6.094;2022-10-19T06:26:06;43.53;;;19.40;;
13847;SDS011;6994;49.752;6.094;2022-10-19T06:28:32;50.60;;;20.70;;
13847;SDS011;6994;49.752;6.094;2022-10-19T06:30:59;45.80;;;21.35;;
13847;SDS011;6994;49.752;6.094;2022-10-19T06:33:27;45.40;;;21.37;;
13847;SDS011;6994;49.752;6.094;2022-10-19T06:35:55;48.40;;;20.30;;
13847;SDS011;6994;49.752;6.094;2022-10-19T06:38:23;52.95;;;21.05;;
13847;SDS011;6994;49.752;6.094;2022-10-19T06:40:50;40.70;;;20.95;;
13847;SDS011;6994;49.752;6.094;2022-10-19T06:43:17;42.15;;;20.58;;
13847;SDS011;6994;49.752;6.094;2022-10-19T06:45:44;47.22;;;25.48;;
13847;SDS011;6994;49.752;6.094;2022-10-19T06:48:12;39.60;;;19.30;;
13847;SDS011;6994;49.752;6.094;2022-10-19T06:50:39;40.67;;;20.00;;
13847;SDS011;6994;49.752;6.094;2022-10-19T06:53:07;38.55;;;18.50;;
13847;SDS011;6994;49.752;6.094;2022-10-19T06:55:35;37.22;;;19.20;;
13847;SDS011;6994;49.752;6.094;2022-10-19T06:58:01;39.40;;;19.30;;
13847;SDS011;6994;49.752;6.094;2022-10-19T07:00:29;33.65;;;17.30;;
13847;SDS011;6994;49.752;6.094;2022-10-19T07:02:58;35.70;;;19.05;;
13847;SDS011;6994;49.752;6.094;2022-10-19T07:05:23;30.15;;;16.02;;
13847;SDS011;6994;49.752;6.094;2022-10-19T07:07:50;32.03;;;14.90;;
13847;SDS011;6994;49.752;6.094;2022-10-19T07:10:17;33.03;;;16.05;;
13847;SDS011;6994;49.752;6.094;2022-10-19T07:12:44;26.30;;;14.38;;
13847;SDS011;6994;49.752;6.094;2022-10-19T07:15:12;30.20;;;16.08;;
13847;SDS011;6994;49.752;6.094;2022-10-19T07:17:40;34.10;;;16.00;;
13847;SDS011;6994;49.752;6.094;2022-10-19T07:20:07;31.15;;;16.42;;
13847;SDS011;6994;49.752;6.094;2022-10-19T07:22:34;35.58;;;19.90;;
13847;SDS011;6994;49.752;6.094;2022-10-19T07:25:01;36.85;;;16.65;;
13847;SDS011;6994;49.752;6.094;2022-10-19T07:27:28;30.37;;;15.52;;
13847;SDS011;6994;49.752;6.094;2022-10-19T07:29:56;24.33;;;13.40;;
13847;SDS011;6994;49.752;6.094;2022-10-19T07:32:24;28.25;;;12.43;;
13847;SDS011;6994;49.752;6.094;2022-10-19T07:34:51;22.83;;;12.13;;
13847;SDS011;6994;49.752;6.094;2022-10-19T07:37:18;24.15;;;11.80;;
13847;SDS011;6994;49.752;6.094;2022-10-19T07:39:46;25.85;;;12.25;;
13847;SDS011;6994;49.752;6.094;2022-10-19T07:42:13;22.48;;;12.07;;
13847;SDS011;6994;49.752;6.094;2022-10-19T07:44:40;19.55;;;11.70;;
13847;SDS011;6994;49.752;6.094;2022-10-19T07:47:08;27.45;;;15.70;;
13847;SDS011;6994;49.752;6.094;2022-10-19T07:49:35;19.83;;;12.05;;
13847;SDS011;6994;49.752;6.094;2022-10-19T07:52:02;19.65;;;11.50;;
13847;SDS011;6994;49.752;6.094;2022-10-19T07:54:30;19.85;;;10.98;;
13847;SDS011;6994;49.752;6.094;2022-10-19T07:56:57;19.65;;;11.80;;
13847;SDS011;6994;49.752;6.094;2022-10-19T07:59:25;19.98;;;10.93;;
13847;SDS011;6994;49.752;6.094;2022-10-19T08:01:52;21.02;;;14.10;;
13847;SDS011;6994;49.752;6.094;2022-10-19T08:04:20;17.65;;;11.32;;
13847;SDS011;6994;49.752;6.094;2022-10-19T08:06:47;15.00;;;10.38;;
13847;SDS011;6994;49.752;6.094;2022-10-19T08:09:14;18.15;;;9.98;;
13847;SDS011;6994;49.752;6.094;2022-10-19T08:11:41;18.20;;;12.60;;
13847;SDS011;6994;49.752;6.094;2022-10-19T08:14:09;15.55;;;9.80;;
13847;SDS011;6994;49.752;6.094;2022-10-19T08:16:37;13.77;;;9.77;;
13847;SDS011;6994;49.752;6.094;2022-10-19T08:19:07;16.95;;;9.15;;
13847;SDS011;6994;49.752;6.094;2022-10-19T08:21:34;13.80;;;9.13;;
13847;SDS011;6994;49.752;6.094;2022-10-19T08:24:01;14.77;;;9.65;;
13847;SDS011;6994;49.752;6.094;2022-10-19T08:26:29;14.55;;;9.10;;
13847;SDS011;6994;49.752;6.094;2022-10-19T08:28:59;17.25;;;12.23;;
13847;SDS011;6994;49.752;6.094;2022-10-19T08:31:26;16.60;;;10.20;;
13847;SDS011;6994;49.752;6.094;2022-10-19T08:33:56;15.38;;;12.02;;
13847;SDS011;6994;49.752;6.094;2022-10-19T08:36:21;16.00;;;10.38;;
13847;SDS011;6994;49.752;6.094;2022-10-19T08:38:49;16.87;;;10.00;;
13847;SDS011;6994;49.752;6.094;2022-10-19T08:41:32;14.20;;;9.98;;
13847;SDS011;6994;49.752;6.094;2022-10-19T08:49:11;16.95;;;9.52;;
13847;SDS011;6994;49.752;6.094;2022-10-19T08:51:38;11.95;;;8.52;;
13847;SDS011;6994;49.752;6.094;2022-10-19T08:54:07;15.85;;;12.75;;
13847;SDS011;6994;49.752;6.094;2022-10-19T08:56:33;13.93;;;10.40;;
13847;SDS011;6994;49.752;6.094;2022-10-19T09:02:02;11.27;;;8.88;;
13847;SDS011;6994;49.752;6.094;2022-10-19T09:04:40;14.30;;;10.48;;
13847;SDS011;6994;49.752;6.094;2022-10-19T09:09:58;17.73;;;10.50;;
13847;SDS011;6994;49.752;6.094;2022-10-19T09:12:23;12.98;;;9.63;;
13847;SDS011;6994;49.752;6.094;2022-10-19T09:15:06;14.43;;;10.57;;
13847;SDS011;6994;49.752;6.094;2022-10-19T09:17:17;14.35;;;9.98;;
13847;SDS011;6994;49.752;6.094;2022-10-19T09:19:45;15.38;;;9.38;;
13847;SDS011;6994;49.752;6.094;2022-10-19T09:22:19;15.93;;;10.63;;
13847;SDS011;6994;49.752;6.094;2022-10-19T09:24:53;15.52;;;9.55;;
13847;SDS011;6994;49.752;6.094;2022-10-19T09:27:25;12.37;;;9.70;;
13847;SDS011;6994;49.752;6.094;2022-10-19T09:29:58;14.95;;;10.95;;
13847;SDS011;6994;49.752;6.094;2022-10-19T09:32:34;15.05;;;10.82;;
13847;SDS011;6994;49.752;6.094;2022-10-19T09:35:02;18.27;;;13.10;;
13847;SDS011;6994;49.752;6.094;2022-10-19T09:37:36;16.40;;;11.82;;
13847;SDS011;6994;49.752;6.094;2022-10-19T09:40:00;14.93;;;11.00;;
13847;SDS011;6994;49.752;6.094;2022-10-19T09:42:29;15.52;;;11.63;;
13847;SDS011;6994;49.752;6.094;2022-10-19T09:44:57;13.18;;;10.02;;
13847;SDS011;6994;49.752;6.094;2022-10-19T09:47:30;12.63;;;10.95;;
13847;SDS011;6994;49.752;6.094;2022-10-19T09:52:46;18.20;;;14.07;;
13847;SDS011;6994;49.752;6.094;2022-10-19T09:57:43;16.85;;;10.90;;
13847;SDS011;6994;49.752;6.094;2022-10-19T10:00:16;13.93;;;10.88;;
13847;SDS011;6994;49.752;6.094;2022-10-19T10:02:48;15.23;;;11.57;;
13847;SDS011;6994;49.752;6.094;2022-10-19T10:05:14;16.15;;;11.20;;
13847;SDS011;6994;49.752;6.094;2022-10-19T10:07:42;15.90;;;10.85;;
13847;SDS011;6994;49.752;6.094;2022-10-19T10:10:19;16.77;;;13.90;;
13847;SDS011;6994;49.752;6.094;2022-10-19T10:12:51;17.60;;;14.00;;
13847;SDS011;6994;49.752;6.094;2022-10-19T10:15:24;14.25;;;11.45;;
13847;SDS011;6994;49.752;6.094;2022-10-19T10:17:49;14.10;;;10.55;;
13847;SDS011;6994;49.752;6.094;2022-10-19T10:20:22;16.08;;;13.15;;
13847;SDS011;6994;49.752;6.094;2022-10-19T10:22:51;17.35;;;11.35;;
13847;SDS011;6994;49.752;6.094;2022-10-19T10:25:17;14.55;;;10.77;;
13847;SDS011;6994;49.752;6.094;2022-10-19T10:27:57;15.40;;;10.93;;
13847;SDS011;6994;49.752;6.094;2022-10-19T10:30:31;14.77;;;10.43;;
13847;SDS011;6994;49.752;6.094;2022-10-19T10:32:55;10.93;;;8.85;;
13847;SDS011;6994;49.752;6.094;2022-10-19T10:35:30;12.63;;;9.32;;
13847;SDS011;6994;49.752;6.094;2022-10-19T10:38:43;12.13;;;10.30;;
13847;SDS011;6994;49.752;6.094;2022-10-19T10:40:34;11.63;;;9.32;;
13847;SDS011;6994;49.752;6.094;2022-10-19T10:43:05;10.85;;;8.70;;
13847;SDS011;6994;49.752;6.094;2022-10-19T10:45:38;11.12;;;9.93;;
13847;SDS011;6994;49.752;6.094;2022-10-19T10:48:13;9.13;;;7.95;;
13847;SDS011;6994;49.752;6.094;2022-10-19T10:50:56;13.68;;;9.73;;
13847;SDS011;6994;49.752;6.094;2022-10-19T10:53:30;9.75;;;8.25;;
13847;SDS011;6994;49.752;6.094;2022-10-19T10:55:57;12.63;;;8.65;;
13847;SDS011;6994;49.752;6.094;2022-10-19T10:58:35;11.20;;;9.35;;
13847;SDS011;6994;49.752;6.094;2022-10-19T11:00:58;10.25;;;8.45;;
13847;SDS011;6994;49.752;6.094;2022-10-19T11:03:25;9.50;;;8.50;;
13847;SDS011;6994;49.752;6.094;2022-10-19T11:05:58;13.48;;;8.93;;
13847;SDS011;6994;49.752;6.094;2022-10-19T11:11:14;12.73;;;10.10;;
13847;SDS011;6994;49.752;6.094;2022-10-19T11:13:49;9.75;;;8.13;;
13847;SDS011;6994;49.752;6.094;2022-10-19T11:16:17;15.15;;;8.82;;
13847;SDS011;6994;49.752;6.094;2022-10-19T11:18:43;8.45;;;7.40;;
13847;SDS011;6994;49.752;6.094;2022-10-19T11:21:17;9.07;;;7.75;;
13847;SDS011;6994;49.752;6.094;2022-10-19T11:24:38;10.82;;;7.70;;
13847;SDS011;6994;49.752;6.094;2022-10-19T11:26:51;7.95;;;7.15;;
13847;SDS011;6994;49.752;6.094;2022-10-19T11:32:00;8.73;;;7.25;;
13847;SDS011;6994;49.752;6.094;2022-10-19T11:37:22;9.65;;;7.62;;
13847;SDS011;6994;49.752;6.094;2022-10-19T11:39:59;11.25;;;7.47;;
13847;SDS011;6994;49.752;6.094;2022-10-19T11:42:36;10.43;;;8.07;;
13847;SDS011;6994;49.752;6.094;2022-10-19T11:50:35;9.05;;;8.10;;
13847;SDS011;6994;49.752;6.094;2022-10-19T12:06:57;9.38;;;6.28;;
13847;SDS011;6994;49.752;6.094;2022-10-19T12:09:27;7.65;;;6.85;;
13847;SDS011;6994;49.752;6.094;2022-10-19T12:14:52;6.75;;;6.15;;
13847;SDS011;6994;49.752;6.094;2022-10-19T12:17:28;7.47;;;6.72;;
13847;SDS011;6994;49.752;6.094;2022-10-19T12:19:55;10.90;;;6.45;;
13847;SDS011;6994;49.752;6.094;2022-10-19T12:22:22;10.38;;;6.60;;
13847;SDS011;6994;49.752;6.094;2022-10-19T12:24:49;10.13;;;6.60;;
13847;SDS011;6994;49.752;6.094;2022-10-19T12:27:16;7.68;;;6.25;;
13847;SDS011;6994;49.752;6.094;2022-10-19T12:29:44;8.32;;;5.70;;
13847;SDS011;6994;49.752;6.094;2022-10-19T12:32:12;7.87;;;5.90;;
13847;SDS011;6994;49.752;6.094;2022-10-19T12:40:03;5.87;;;5.37;;
13847;SDS011;6994;49.752;6.094;2022-10-19T12:47:33;8.75;;;6.80;;
13847;SDS011;6994;49.752;6.094;2022-10-19T12:50:00;7.80;;;6.95;;
13847;SDS011;6994;49.752;6.094;2022-10-19T12:52:44;9.10;;;6.37;;
13847;SDS011;6994;49.752;6.094;2022-10-19T12:57:54;7.62;;;6.90;;
13847;SDS011;6994;49.752;6.094;2022-10-19T13:00:25;9.88;;;7.75;;
13847;SDS011;6994;49.752;6.094;2022-10-19T13:03:05;8.80;;;7.00;;
13847;SDS011;6994;49.752;6.094;2022-10-19T13:05:32;7.43;;;6.68;;
13847;SDS011;6994;49.752;6.094;2022-10-19T13:07:59;6.37;;;5.25;;
13847;SDS011;6994;49.752;6.094;2022-10-19T13:10:26;7.05;;;5.97;;
13847;SDS011;6994;49.752;6.094;2022-10-19T13:12:53;11.57;;;8.25;;
13847;SDS011;6994;49.752;6.094;2022-10-19T13:18:00;8.45;;;6.32;;
13847;SDS011;6994;49.752;6.094;2022-10-19T13:25:28;7.78;;;5.72;;
13847;SDS011;6994;49.752;6.094;2022-10-19T13:43:50;8.77;;;6.30;;
13847;SDS011;6994;49.752;6.094;2022-10-19T13:51:52;6.93;;;6.32;;
13847;SDS011;6994;49.752;6.094;2022-10-19T13:57:05;9.25;;;6.10;;
13847;SDS011;6994;49.752;6.094;2022-10-19T14:00:26;8.30;;;6.80;;
13847;SDS011;6994;49.752;6.094;2022-10-19T14:07:48;8.20;;;6.35;;
13847;SDS011;6994;49.752;6.094;2022-10-19T14:10:14;7.30;;;5.95;;
13847;SDS011;6994;49.752;6.094;2022-10-19T14:12:43;7.37;;;6.30;;
13847;SDS011;6994;49.752;6.094;2022-10-19T14:15:15;6.72;;;6.03;;
13847;SDS011;6994;49.752;6.094;2022-10-19T14:17:41;6.32;;;5.72;;
13847;SDS011;6994;49.752;6.094;2022-10-19T14:22:54;9.77;;;6.95;;
13847;SDS011;6994;49.752;6.094;2022-10-19T14:25:23;6.97;;;5.82;;
13847;SDS011;6994;49.752;6.094;2022-10-19T14:27:53;8.80;;;5.55;;
13847;SDS011;6994;49.752;6.094;2022-10-19T14:30:26;8.82;;;5.45;;
13847;SDS011;6994;49.752;6.094;2022-10-19T14:32:52;9.15;;;6.37;;
13847;SDS011;6994;49.752;6.094;2022-10-19T14:35:23;7.80;;;5.78;;
13847;SDS011;6994;49.752;6.094;2022-10-19T14:37:50;8.57;;;5.70;;
13847;SDS011;6994;49.752;6.094;2022-10-19T14:40:26;7.25;;;5.47;;
13847;SDS011;6994;49.752;6.094;2022-10-19T14:42:55;6.37;;;5.05;;
13847;SDS011;6994;49.752;6.094;2022-10-19T14:45:26;9.05;;;5.07;;
13847;SDS011;6994;49.752;6.094;2022-10-19T14:50:40;8.43;;;5.22;;
13847;SDS011;6994;49.752;6.094;2022-10-19T14:55:56;5.57;;;4.80;;
13847;SDS011;6994;49.752;6.094;2022-10-19T14:58:23;4.80;;;4.03;;
13847;SDS011;6994;49.752;6.094;2022-10-19T15:00:50;4.60;;;3.30;;
13847;SDS011;6994;49.752;6.094;2022-10-19T15:03:19;6.65;;;4.75;;
13847;SDS011;6994;49.752;6.094;2022-10-19T15:05:47;4.70;;;4.25;;
13847;SDS011;6994;49.752;6.094;2022-10-19T15:08:17;9.82;;;7.62;;
13847;SDS011;6994;49.752;6.094;2022-10-19T15:10:42;8.23;;;3.80;;
13847;SDS011;6994;49.752;6.094;2022-10-19T15:13:12;6.85;;;3.22;;
13847;SDS011;6994;49.752;6.094;2022-10-19T15:15:36;4.03;;;3.50;;
13847;SDS011;6994;49.752;6.094;2022-10-19T15:18:04;6.12;;;3.60;;
13847;SDS011;6994;49.752;6.094;2022-10-19T15:22:57;10.02;;;2.87;;
13847;SDS011;6994;49.752;6.094;2022-10-19T15:25:26;5.35;;;2.47;;
13847;SDS011;6994;49.752;6.094;2022-10-19T15:27:54;5.25;;;2.75;;
13847;SDS011;6994;49.752;6.094;2022-10-19T15:30:28;4.55;;;2.95;;
13847;SDS011;6994;49.752;6.094;2022-10-19T15:35:29;6.55;;;2.78;;
13847;SDS011;6994;49.752;6.094;2022-10-19T15:40:41;3.90;;;2.80;;
13847;SDS011;6994;49.752;6.094;2022-10-19T15:46:02;5.78;;;2.62;;
13847;SDS011;6994;49.752;6.094;2022-10-19T15:53:53;4.40;;;2.70;;
13847;SDS011;6994;49.752;6.094;2022-10-19T15:56:23;3.30;;;2.50;;
13847;SDS011;6994;49.752;6.094;2022-10-19T15:58:51;3.67;;;2.62;;
13847;SDS011;6994;49.752;6.094;2022-10-19T16:01:19;5.43;;;2.95;;
13847;SDS011;6994;49.752;6.094;2022-10-19T16:03:45;5.12;;;3.92;;
13847;SDS011;6994;49.752;6.094;2022-10-19T16:06:12;3.50;;;3.20;;
13847;SDS011;6994;49.752;6.094;2022-10-19T16:08:40;4.95;;;3.33;;
13847;SDS011;6994;49.752;6.094;2022-10-19T16:11:08;4.90;;;3.72;;
13847;SDS011;6994;49.752;6.094;2022-10-19T16:13:37;5.80;;;4.25;;
13847;SDS011;6994;49.752;6.094;2022-10-19T16:16:04;5.05;;;3.40;;
13847;SDS011;6994;49.752;6.094;2022-10-19T16:18:31;4.43;;;3.70;;
13847;SDS011;6994;49.752;6.094;2022-10-19T16:20:59;4.87;;;4.03;;
13847;SDS011;6994;49.752;6.094;2022-10-19T16:23:26;4.95;;;4.40;;
13847;SDS011;6994;49.752;6.094;2022-10-19T16:25:54;4.57;;;4.07;;
13847;SDS011;6994;49.752;6.094;2022-10-19T16:28:22;5.37;;;4.72;;
13847;SDS011;6994;49.752;6.094;2022-10-19T16:30:50;4.30;;;3.90;;
13847;SDS011;6994;49.752;6.094;2022-10-19T16:33:17;7.95;;;4.40;;
13847;SDS011;6994;49.752;6.094;2022-10-19T16:35:44;5.05;;;3.85;;
13847;SDS011;6994;49.752;6.094;2022-10-19T16:38:11;4.90;;;3.60;;
13847;SDS011;6994;49.752;6.094;2022-10-19T16:40:38;5.47;;;3.50;;
13847;SDS011;6994;49.752;6.094;2022-10-19T16:43:06;5.30;;;3.50;;
13847;SDS011;6994;49.752;6.094;2022-10-19T16:45:33;5.78;;;4.82;;
13847;SDS011;6994;49.752;6.094;2022-10-19T16:48:00;7.05;;;3.33;;
13847;SDS011;6994;49.752;6.094;2022-10-19T16:50:27;6.82;;;5.25;;
13847;SDS011;6994;49.752;6.094;2022-10-19T16:53:05;4.37;;;3.97;;
13847;SDS011;6994;49.752;6.094;2022-10-19T16:55:31;4.15;;;3.75;;
13847;SDS011;6994;49.752;6.094;2022-10-19T16:57:58;5.68;;;5.18;;
13847;SDS011;6994;49.752;6.094;2022-10-19T17:00:25;5.12;;;4.32;;
13847;SDS011;6994;49.752;6.094;2022-10-19T17:02:53;7.35;;;4.47;;
13847;SDS011;6994;49.752;6.094;2022-10-19T17:05:20;6.87;;;4.68;;
13847;SDS011;6994;49.752;6.094;2022-10-19T17:07:47;8.32;;;6.10;;
13847;SDS011;6994;49.752;6.094;2022-10-19T17:10:14;4.85;;;4.37;;
13847;SDS011;6994;49.752;6.094;2022-10-19T17:12:41;6.20;;;4.57;;